• Join FlightAware (Why Join?)
  • Login
  • US Flag 
03:07AM EDT


 

Airport Tracker/Info


-or-


 

Live Flight TrackerFlight Track Log ✈ LXJ437 ✈ 21-Jun-2013 ✈ KSUN - KMEV

Flight Track Log - Related Links

Times and Time Zones

All times are in EDT time to prevent confusion due to time zone crossing. See the LXJ437 flight status page for this flight to view local times or setup timezone preferences in your user account.

Time Position Orientation Groundspeed Altitude Reporting Facility
EDT Latitude Longitude Course Direction KTS MPH feet Rate Location/Type
11:53AM 43.3347 -114.2811 192° South 347 399 13,800  Level Salt Lake Center
11:54AM 43.2322 -114.2861 182° South 354 407 18,200 4,140 Climbing Salt Lake Center
11:55AM 42.8750 -114.3659 191° South  Level FlightAware Approximate
11:55AM 43.1233 -114.2944 183° South 373 429 22,400  Level Salt Lake Center
11:56AM 42.7703 -114.3945 191° South  Level FlightAware Approximate
11:56AM 43.0194 -114.3361 196° South 372 428 26,100  Level Salt Lake Center
11:57AM 42.6660 -114.4252 192° South  Level FlightAware Approximate
11:57AM 42.9183 -114.3653 192° South 385 443 28,000  Level Salt Lake Center
11:58AM 42.5617 -114.4562 192° South  Level FlightAware Approximate
11:58AM 42.8144 -114.4025 195° South 416 479 30,400  Level Salt Lake Center
11:59AM 42.7267 -114.5292 227° Southwest 383 441 34,000 2,820 Climbing Salt Lake Center
12:00PM 42.6636 -114.6417 233° Southwest 369 425 36,300 1,680 Climbing Salt Lake Center
12:01PM 42.6014 -114.7475 231° Southwest 368 423 37,500 1,140 Climbing Salt Lake Center
12:02PM 42.5364 -114.8617 232° Southwest 385 443 38,700 1,080 Climbing Salt Lake Center
12:03PM 42.4647 -114.9864 232° Southwest 386 444 39,800 600 Climbing Salt Lake Center
12:04PM 42.3931 -115.1092 232° Southwest 399 459 40,000 240 Climbing Salt Lake Center
12:06PM 42.3156 -115.2408 232° Southwest 424 488 40,400 720 Climbing Salt Lake Center
12:07PM 42.2378 -115.3714 231° Southwest 427 491 41,600 1,200 Climbing Salt Lake Center
12:08PM 42.1642 -115.4967 232° Southwest 411 473 42,900 660 Climbing Salt Lake Center
12:09PM 42.0953 -115.6125 231° Southwest 412 474 43,000  Climbing Salt Lake Center
12:10PM 42.0194 -115.7394 231° Southwest 428 493 43,000  Level Salt Lake Center
12:11PM 41.9347 -115.8806 231° Southwest 433 498 43,000  Level Salt Lake Center
12:12PM 41.8631 -116.0011 231° Southwest 433 498 43,000  Level Salt Lake Center
12:13PM 41.7792 -116.1397 231° Southwest 431 496 43,000  Level Salt Lake Center
12:14PM 41.7089 -116.2617 232° Southwest 431 496 43,000  Level Salt Lake Center
12:15PM 41.6364 -116.3817 231° Southwest 433 498 43,000  Level Salt Lake Center
12:16PM 41.5519 -116.5181 230° Southwest 428 493 43,000  Level Salt Lake Center
12:17PM 41.4803 -116.6358 231° Southwest 427 491 43,000  Level Salt Lake Center
12:18PM 41.3953 -116.7708 230° Southwest 428 493 43,000  Level Salt Lake Center
12:19PM 41.3236 -116.8875 231° Southwest 426 490 43,000  Level Salt Lake Center
12:20PM 41.2394 -117.0219 230° Southwest 425 489 43,000  Level Salt Lake Center
12:21PM 41.1678 -117.1386 231° Southwest 426 490 43,000  Level Salt Lake Center
12:22PM 41.0825 -117.2747 230° Southwest 430 495 43,000  Level Salt Lake Center
12:23PM 41.0106 -117.3911 231° Southwest 429 494 43,000  Level Salt Lake Center
12:24PM 40.9267 -117.5242 230° Southwest 426 490 43,000  Level Salt Lake Center
12:25PM 40.8539 -117.6369 230° Southwest 423 487 43,000  Level Salt Lake Center
12:26PM 40.7692 -117.7711 230° Southwest 427 491 43,000  Level Salt Lake Center
12:27PM 40.6969 -117.8844 230° Southwest 424 488 43,000  Level Salt Lake Center
12:28PM 40.6244 -117.9978 230° Southwest 428 493 43,000  Level Oakland Center
12:29PM 40.5406 -118.1311 230° Southwest 427 491 43,000  Level Oakland Center
12:30PM 40.4694 -118.2383 229° Southwest 423 487 43,000  Level Oakland Center
12:31PM 40.3925 -118.3572 230° Southwest 426 490 43,000 -300 Level Oakland Center
12:32PM 40.3172 -118.4769 231° Southwest 426 490 42,500 -840 Descending Oakland Center
12:33PM 40.2233 -118.6172 229° Southwest 429 494 41,400 -960 Descending Oakland Center
12:34PM 40.1464 -118.7342 229° Southwest 428 493 40,400 -1,440 Descending Salt Lake Center
12:35PM 40.0703 -118.8514 230° Southwest 425 489 38,500 -2,580 Descending Oakland Center
12:36PM 39.9947 -118.9639 229° Southwest 417 480 35,500 -3,180 Descending Oakland Center
12:37PM 39.9233 -119.0717 229° Southwest 400 460 32,100 -3,240 Descending Oakland Center
12:38PM 39.8494 -119.1814 229° Southwest 405 466 28,900 -3,300 Descending Oakland Center
12:39PM 39.7528 -119.2608 212° Southwest 412 474 25,400 -3,960 Descending Oakland Center
12:40PM 39.6333 -119.3364 206° Southwest 401 461 20,900 -3,660 Descending Oakland Center
12:41PM 39.5408 -119.3978 207° Southwest 382 440 17,900 -2,640 Descending Oakland Center
12:43PM 39.4494 -119.4586 207° Southwest 374 430 15,600 -1,920 Descending Oakland Center
12:44PM 39.3606 -119.5158 206° Southwest 361 415 14,000 -2,040 Descending Oakland Center
12:45PM 39.2789 -119.5708 208° Southwest 344 396 11,500 -1,980 Descending Oakland Center
12:46PM 39.2092 -119.6217 209° Southwest 318 366 10,000 -1,320 Descending Oakland Center
12:47PM 39.1408 -119.6769 212° Southwest 297 342 8,800 -1,200 Descending Oakland Center